Aérodrome :
LOGIN :

S'inscrire | Disclaimer

   EN    FR    IT 

 










Légende :    VFR   VFR Marginal   IFR   IFR Intensif   IFR Très Intensif
Visi : 
Plafond : 
>= 8 km
>= 3000ft
5 à 8 km
1000 à 3000 ft
1500m à 5 km
500 à 1000 ft
800 à 1500m
200 à 500 ft
< 800m
< 200 ft
Symboles :   Orages  Brouillard  Fortes neiges  Fortes précipitations  Vent > 20 kt
SIGMETs :   Divers  Orages  Givrage  Turbulence  Onde Orograph.  Cendres Volcan.







- Altitude de l'aérodrome : 6 ft
- Code IATA : PSA


LIRP - Galileo Galilei Pisa

DERNIER METAR :
  • 241515Z 32011KT 9999 FEW030TCU 28/19 Q1017 NOSIG

METARs EXPIRÉS :
  • 241445Z 31010KT 9999 FEW030CB 29/17 Q1017 NOSIG
  • 241415Z 29012KT 9999 FEW030CB 30/16 Q1017 NOSIG
  • 241345Z 20003KT 9999 FEW030 30/15 Q1017 NOSIG
  • 241315Z 23005KT 9999 FEW030TCU 30/15 Q1017 NOSIG
  • 241245Z 20006KT 9999 FEW040TCU 29/14 Q1018 NOSIG

TAF TAF LIRP
Valide du 24 à 12h jusqu'au 25 à 12h UTC


241100Z 2412/2512 04008KT 9999 FEW060
PROB40
TEMPO 2413/2415 SHRA FEW020CB SCT030
Pas de NOTAMs connus pour ce terrain.



MET'MAP, la Météo Aéronautique d'un coup d'oeil ! - Copyright ORBIFLY Décembre 2007 - Disclaimer

ORBIFLY MET'MAP TEAM :

Programmation & Développement : Alexandra Zaïnal
Conception & Développement : Baudouin d'Aumeries
Co-Programmation & Développement : Marc-Olivier Méhu
Soutien technique & logistique : Manuel Goepfert

Contact : metmap@orbifly.com




SOURCES & CREDITS :

   NOAA